sensor_id;sensor_type;location;lat;lon;timestamp;pressure;altitude;pressure_sealevel;temperature;humidity
75815;BME280;70031;45.570;14.228;2023-07-24T00:01:40;97021.75;;;16.19;100.00
75815;BME280;70031;45.570;14.228;2023-07-24T00:03:41;97018.09;;;16.24;100.00
75815;BME280;70031;45.570;14.228;2023-07-24T00:05:41;97018.09;;;16.24;100.00
75815;BME280;70031;45.570;14.228;2023-07-24T00:07:42;97015.53;;;16.19;100.00
75815;BME280;70031;45.570;14.228;2023-07-24T00:09:42;97008.81;;;16.08;100.00
75815;BME280;70031;45.570;14.228;2023-07-24T00:11:42;97010.09;;;16.01;100.00
75815;BME280;70031;45.570;14.228;2023-07-24T00:13:44;97014.88;;;15.96;100.00
75815;BME280;70031;45.570;14.228;2023-07-24T00:15:45;97018.38;;;15.96;100.00
75815;BME280;70031;45.570;14.228;2023-07-24T00:17:45;97013.59;;;16.02;100.00
75815;BME280;70031;45.570;14.228;2023-07-24T00:19:46;97007.22;;;16.07;100.00
75815;BME280;70031;45.570;14.228;2023-07-24T00:21:46;97011.53;;;16.08;100.00
75815;BME280;70031;45.570;14.228;2023-07-24T00:23:46;97008.81;;;16.08;100.00
75815;BME280;70031;45.570;14.228;2023-07-24T00:25:47;97002.91;;;16.06;100.00
75815;BME280;70031;45.570;14.228;2023-07-24T00:27:47;97008.50;;;16.18;100.00
75815;BME280;70031;45.570;14.228;2023-07-24T00:29:47;97004.00;;;16.13;100.00
75815;BME280;70031;45.570;14.228;2023-07-24T00:31:48;97001.28;;;16.13;100.00
75815;BME280;70031;45.570;14.228;2023-07-24T00:33:48;97008.03;;;16.16;100.00
75815;BME280;70031;45.570;14.228;2023-07-24T00:35:49;96998.91;;;16.12;100.00
75815;BME280;70031;45.570;14.228;2023-07-24T00:37:49;96998.09;;;16.11;100.00
75815;BME280;70031;45.570;14.228;2023-07-24T00:39:49;96996.19;;;16.12;100.00
75815;BME280;70031;45.570;14.228;2023-07-24T00:41:50;96995.25;;;16.08;100.00
75815;BME280;70031;45.570;14.228;2023-07-24T00:43:50;96991.09;;;16.01;100.00
75815;BME280;70031;45.570;14.228;2023-07-24T00:45:51;96992.53;;;15.99;100.00
75815;BME280;70031;45.570;14.228;2023-07-24T00:47:51;96986.78;;;16.00;100.00
75815;BME280;70031;45.570;14.228;2023-07-24T00:49:53;96986.31;;;16.07;100.00
75815;BME280;70031;45.570;14.228;2023-07-24T00:51:53;96989.34;;;16.06;100.00
75815;BME280;70031;45.570;14.228;2023-07-24T00:53:58;96985.34;;;16.03;100.00
75815;BME280;70031;45.570;14.228;2023-07-24T00:56:00;96991.56;;;16.04;100.00
75815;BME280;70031;45.570;14.228;2023-07-24T00:58:02;96986.63;;;16.06;100.00
75815;BME280;70031;45.570;14.228;2023-07-24T01:00:03;96986.44;;;16.11;100.00
75815;BME280;70031;45.570;14.228;2023-07-24T01:02:04;96978.16;;;16.16;100.00
75815;BME280;70031;45.570;14.228;2023-07-24T01:04:05;96971.94;;;16.15;100.00
75815;BME280;70031;45.570;14.228;2023-07-24T01:06:06;96971.75;;;16.03;100.00
75815;BME280;70031;45.570;14.228;2023-07-24T01:08:07;96974.66;;;16.07;100.00
75815;BME280;70031;45.570;14.228;2023-07-24T01:10:08;96978.78;;;16.13;100.00
75815;BME280;70031;45.570;14.228;2023-07-24T01:12:22;96976.25;;;16.08;100.00
75815;BME280;70031;45.570;14.228;2023-07-24T01:16:41;96974.78;;;16.01;100.00
75815;BME280;70031;45.570;14.228;2023-07-24T01:18:42;96973.53;;;15.99;100.00
75815;BME280;70031;45.570;14.228;2023-07-24T01:20:48;96968.91;;;15.99;100.00
75815;BME280;70031;45.570;14.228;2023-07-24T01:27:28;96970.03;;;15.90;100.00
75815;BME280;70031;45.570;14.228;2023-07-24T01:29:28;96976.06;;;15.95;100.00
75815;BME280;70031;45.570;14.228;2023-07-24T01:31:29;96972.56;;;15.95;100.00
75815;BME280;70031;45.570;14.228;2023-07-24T01:33:32;96961.09;;;15.89;100.00
75815;BME280;70031;45.570;14.228;2023-07-24T01:35:36;96963.00;;;15.89;100.00
75815;BME280;70031;45.570;14.228;2023-07-24T01:37:41;96965.06;;;15.92;100.00
75815;BME280;70031;45.570;14.228;2023-07-24T01:39:44;96964.28;;;15.91;100.00
75815;BME280;70031;45.570;14.228;2023-07-24T01:41:48;96960.91;;;15.94;100.00
75815;BME280;70031;45.570;14.228;2023-07-24T01:43:52;96963.47;;;15.91;100.00
75815;BME280;70031;45.570;14.228;2023-07-24T01:45:53;96948.13;;;15.86;100.00
75815;BME280;70031;45.570;14.228;2023-07-24T01:47:53;96939.38;;;15.81;100.00
75815;BME280;70031;45.570;14.228;2023-07-24T01:49:54;96945.75;;;15.76;100.00
75815;BME280;70031;45.570;14.228;2023-07-24T01:51:54;96947.97;;;15.83;100.00
75815;BME280;70031;45.570;14.228;2023-07-24T01:53:57;96940.00;;;15.69;100.00
75815;BME280;70031;45.570;14.228;2023-07-24T01:55:58;96944.28;;;15.70;100.00
75815;BME280;70031;45.570;14.228;2023-07-24T01:57:58;96949.09;;;15.73;100.00
75815;BME280;70031;45.570;14.228;2023-07-24T02:02:12;96947.00;;;15.61;100.00
75815;BME280;70031;45.570;14.228;2023-07-24T02:04:12;96946.19;;;15.61;100.00
75815;BME280;70031;45.570;14.228;2023-07-24T02:06:13;96940.59;;;15.57;100.00
75815;BME280;70031;45.570;14.228;2023-07-24T02:08:13;96938.06;;;15.61;100.00
75815;BME280;70031;45.570;14.228;2023-07-24T02:10:14;96932.81;;;15.64;100.00
75815;BME280;70031;45.570;14.228;2023-07-24T02:12:14;96929.94;;;15.61;100.00
75815;BME280;70031;45.570;14.228;2023-07-24T02:14:15;96929.31;;;15.64;100.00
75815;BME280;70031;45.570;14.228;2023-07-24T02:16:17;96935.34;;;15.61;100.00
75815;BME280;70031;45.570;14.228;2023-07-24T02:18:17;96929.59;;;15.62;100.00
75815;BME280;70031;45.570;14.228;2023-07-24T02:20:17;96929.00;;;15.65;100.00
75815;BME280;70031;45.570;14.228;2023-07-24T02:22:18;96935.34;;;15.69;100.00
75815;BME280;70031;45.570;14.228;2023-07-24T02:24:18;96933.63;;;15.65;100.00
75815;BME280;70031;45.570;14.228;2023-07-24T02:26:18;96931.69;;;15.65;100.00
75815;BME280;70031;45.570;14.228;2023-07-24T02:28:19;96927.06;;;15.66;100.00
75815;BME280;70031;45.570;14.228;2023-07-24T02:30:19;96933.44;;;15.61;100.00
75815;BME280;70031;45.570;14.228;2023-07-24T02:32:20;96933.13;;;15.63;100.00
75815;BME280;70031;45.570;14.228;2023-07-24T02:34:22;96931.19;;;15.63;100.00
75815;BME280;70031;45.570;14.228;2023-07-24T02:36:25;96928.66;;;15.67;100.00
75815;BME280;70031;45.570;14.228;2023-07-24T02:38:25;96925.31;;;15.70;100.00
75815;BME280;70031;45.570;14.228;2023-07-24T02:40:25;96920.84;;;15.65;100.00
75815;BME280;70031;45.570;14.228;2023-07-24T02:42:26;96921.94;;;15.56;100.00
75815;BME280;70031;45.570;14.228;2023-07-24T02:44:26;96913.16;;;15.59;100.00
75815;BME280;70031;45.570;14.228;2023-07-24T02:46:26;96912.34;;;15.58;100.00
75815;BME280;70031;45.570;14.228;2023-07-24T02:48:29;96911.88;;;15.48;100.00
75815;BME280;70031;45.570;14.228;2023-07-24T02:50:29;96909.16;;;15.48;100.00
75815;BME280;70031;45.570;14.228;2023-07-24T02:52:29;96900.53;;;15.54;100.00
75815;BME280;70031;45.570;14.228;2023-07-24T02:54:30;96897.00;;;15.54;100.00
75815;BME280;70031;45.570;14.228;2023-07-24T02:56:30;96894.94;;;15.51;100.00
75815;BME280;70031;45.570;14.228;2023-07-24T02:58:30;96895.09;;;15.45;100.00
75815;BME280;70031;45.570;14.228;2023-07-24T03:00:31;96896.22;;;15.44;100.00
75815;BME280;70031;45.570;14.228;2023-07-24T03:02:31;96898.31;;;15.48;100.00
75815;BME280;70031;45.570;14.228;2023-07-24T03:04:32;96892.25;;;15.51;100.00
75815;BME280;70031;45.570;14.228;2023-07-24T03:06:32;96897.66;;;15.51;100.00
75815;BME280;70031;45.570;14.228;2023-07-24T03:08:33;96898.78;;;15.50;100.00
75815;BME280;70031;45.570;14.228;2023-07-24T03:10:33;96906.59;;;15.51;100.00
75815;BME280;70031;45.570;14.228;2023-07-24T03:12:34;96896.41;;;15.48;100.00
75815;BME280;70031;45.570;14.228;2023-07-24T03:14:34;96901.03;;;15.48;100.00
75815;BME280;70031;45.570;14.228;2023-07-24T03:16:34;96900.84;;;15.53;100.00
75815;BME280;70031;45.570;14.228;2023-07-24T03:18:35;96890.97;;;15.57;100.00
75815;BME280;70031;45.570;14.228;2023-07-24T03:20:35;96903.09;;;15.42;100.00
75815;BME280;70031;45.570;14.228;2023-07-24T03:22:35;96890.78;;;15.36;100.00
75815;BME280;70031;45.570;14.228;2023-07-24T03:24:36;96900.69;;;15.32;100.00
75815;BME280;70031;45.570;14.228;2023-07-24T03:26:36;96899.72;;;15.28;100.00
75815;BME280;70031;45.570;14.228;2023-07-24T03:28:37;96899.56;;;15.24;100.00
75815;BME280;70031;45.570;14.228;2023-07-24T03:30:37;96897.97;;;15.23;100.00
75815;BME280;70031;45.570;14.228;2023-07-24T03:32:37;96908.47;;;15.25;100.00
75815;BME280;70031;45.570;14.228;2023-07-24T03:34:38;96911.81;;;15.30;100.00
75815;BME280;70031;45.570;14.228;2023-07-24T03:36:39;96909.63;;;15.32;100.00
75815;BME280;70031;45.570;14.228;2023-07-24T03:38:41;96903.69;;;15.30;100.00
75815;BME280;70031;45.570;14.228;2023-07-24T03:40:42;96908.50;;;15.33;100.00
75815;BME280;70031;45.570;14.228;2023-07-24T03:42:42;96903.53;;;15.35;100.00
75815;BME280;70031;45.570;14.228;2023-07-24T03:44:42;96907.69;;;15.33;100.00
75815;BME280;70031;45.570;14.228;2023-07-24T03:46:43;96900.84;;;15.44;100.00
75815;BME280;70031;45.570;14.228;2023-07-24T03:48:43;96905.13;;;15.36;100.00
75815;BME280;70031;45.570;14.228;2023-07-24T03:50:43;96905.63;;;15.38;100.00
75815;BME280;70031;45.570;14.228;2023-07-24T03:52:44;96919.81;;;15.44;100.00
75815;BME280;70031;45.570;14.228;2023-07-24T03:54:44;96912.00;;;15.42;100.00
75815;BME280;70031;45.570;14.228;2023-07-24T03:56:45;96901.81;;;15.48;100.00
75815;BME280;70031;45.570;14.228;2023-07-24T03:58:45;96902.13;;;15.46;100.00
75815;BME280;70031;45.570;14.228;2023-07-24T04:00:46;96897.47;;;15.38;100.00
75815;BME280;70031;45.570;14.228;2023-07-24T04:02:47;96890.47;;;15.46;100.00
75815;BME280;70031;45.570;14.228;2023-07-24T04:04:47;96886.34;;;15.49;100.00
75815;BME280;70031;45.570;14.228;2023-07-24T04:06:48;96896.38;;;15.31;100.00
75815;BME280;70031;45.570;14.228;2023-07-24T04:08:48;96893.81;;;15.34;100.00
75815;BME280;70031;45.570;14.228;2023-07-24T04:10:49;96899.56;;;15.41;100.00
75815;BME280;70031;45.570;14.228;2023-07-24T04:12:49;96892.06;;;15.38;100.00
75815;BME280;70031;45.570;14.228;2023-07-24T04:14:50;96898.28;;;15.39;100.00
75815;BME280;70031;45.570;14.228;2023-07-24T04:16:50;96890.63;;;15.32;100.00
75815;BME280;70031;45.570;14.228;2023-07-24T04:18:51;96886.94;;;15.37;100.00
75815;BME280;70031;45.570;14.228;2023-07-24T04:20:51;96883.91;;;15.30;100.00
75815;BME280;70031;45.570;14.228;2023-07-24T04:22:51;96879.16;;;15.35;100.00
75815;BME280;70031;45.570;14.228;2023-07-24T04:24:52;96876.44;;;15.35;100.00
75815;BME280;70031;45.570;14.228;2023-07-24T04:26:52;96885.69;;;15.43;100.00
75815;BME280;70031;45.570;14.228;2023-07-24T04:28:52;96877.41;;;15.31;100.00
75815;BME280;70031;45.570;14.228;2023-07-24T04:30:53;96874.97;;;15.29;100.00
75815;BME280;70031;45.570;14.228;2023-07-24T04:32:53;96868.91;;;15.15;100.00
75815;BME280;70031;45.570;14.228;2023-07-24T04:34:53;96876.09;;;15.28;100.00
75815;BME280;70031;45.570;14.228;2023-07-24T04:36:54;96881.38;;;15.33;100.00
75815;BME280;70031;45.570;14.228;2023-07-24T04:38:54;96866.38;;;15.27;100.00
75815;BME280;70031;45.570;14.228;2023-07-24T04:40:54;96875.16;;;15.24;100.00
75815;BME280;70031;45.570;14.228;2023-07-24T04:42:55;96879.59;;;15.29;100.00
75815;BME280;70031;45.570;14.228;2023-07-24T04:44:55;96880.25;;;15.26;100.00
75815;BME280;70031;45.570;14.228;2023-07-24T04:46:56;96875.97;;;15.33;100.00
75815;BME280;70031;45.570;14.228;2023-07-24T04:48:56;96877.88;;;15.24;100.00
75815;BME280;70031;45.570;14.228;2023-07-24T04:50:56;96885.19;;;15.24;100.00
75815;BME280;70031;45.570;14.228;2023-07-24T04:52:57;96890.44;;;15.11;100.00
75815;BME280;70031;45.570;14.228;2023-07-24T04:54:57;96881.50;;;15.20;100.00
75815;BME280;70031;45.570;14.228;2023-07-24T04:56:57;96880.91;;;15.31;100.00
75815;BME280;70031;45.570;14.228;2023-07-24T04:58:58;96880.72;;;15.28;100.00
75815;BME280;70031;45.570;14.228;2023-07-24T05:01:03;96883.44;;;15.19;100.00
75815;BME280;70031;45.570;14.228;2023-07-24T05:03:04;96875.75;;;15.21;100.00
75815;BME280;70031;45.570;14.228;2023-07-24T05:05:05;96871.00;;;15.18;100.00
75815;BME280;70031;45.570;14.228;2023-07-24T05:07:06;96871.78;;;15.27;100.00
75815;BME280;70031;45.570;14.228;2023-07-24T05:09:06;96863.03;;;15.39;100.00
75815;BME280;70031;45.570;14.228;2023-07-24T05:11:06;96871.16;;;15.39;100.00
75815;BME280;70031;45.570;14.228;2023-07-24T05:13:07;96868.94;;;15.50;100.00
75815;BME280;70031;45.570;14.228;2023-07-24T05:15:07;96859.69;;;15.42;100.00
75815;BME280;70031;45.570;14.228;2023-07-24T05:17:08;96865.59;;;15.44;100.00
75815;BME280;70031;45.570;14.228;2023-07-24T05:19:08;96875.97;;;15.51;100.00
75815;BME280;70031;45.570;14.228;2023-07-24T05:21:09;96881.72;;;15.49;100.00
75815;BME280;70031;45.570;14.228;2023-07-24T05:23:09;96867.97;;;15.45;100.00
75815;BME280;70031;45.570;14.228;2023-07-24T05:25:09;96869.09;;;15.44;100.00
75815;BME280;70031;45.570;14.228;2023-07-24T05:27:10;96873.72;;;15.44;100.00
75815;BME280;70031;45.570;14.228;2023-07-24T05:29:12;96865.44;;;15.49;100.00
75815;BME280;70031;45.570;14.228;2023-07-24T05:31:12;96869.91;;;15.54;100.00
75815;BME280;70031;45.570;14.228;2023-07-24T05:33:13;96865.28;;;15.63;100.00
75815;BME280;70031;45.570;14.228;2023-07-24T05:35:13;96867.53;;;15.78;100.00
75815;BME280;70031;45.570;14.228;2023-07-24T05:37:13;96876.75;;;15.94;100.00
75815;BME280;70031;45.570;14.228;2023-07-24T05:39:14;96865.91;;;15.94;100.00
75815;BME280;70031;45.570;14.228;2023-07-24T05:41:14;96887.28;;;15.96;100.00
75815;BME280;70031;45.570;14.228;2023-07-24T05:43:14;96882.97;;;16.04;100.00
75815;BME280;70031;45.570;14.228;2023-07-24T05:45:15;96876.41;;;16.13;100.00
75815;BME280;70031;45.570;14.228;2023-07-24T05:47:15;96890.94;;;16.17;100.00
75815;BME280;70031;45.570;14.228;2023-07-24T05:49:16;96883.41;;;16.32;100.00
75815;BME280;70031;45.570;14.228;2023-07-24T05:51:16;96891.69;;;16.35;100.00
75815;BME280;70031;45.570;14.228;2023-07-24T05:53:17;96896.00;;;16.36;100.00
75815;BME280;70031;45.570;14.228;2023-07-24T05:55:17;96893.19;;;16.62;100.00
75815;BME280;70031;45.570;14.228;2023-07-24T05:57:17;96893.97;;;16.80;100.00
75815;BME280;70031;45.570;14.228;2023-07-24T05:59:18;96887.34;;;16.98;100.00
75815;BME280;70031;45.570;14.228;2023-07-24T06:01:18;96888.88;;;17.08;100.00
75815;BME280;70031;45.570;14.228;2023-07-24T06:03:19;96879.94;;;16.69;100.00
75815;BME280;70031;45.570;14.228;2023-07-24T06:05:19;96873.63;;;16.86;100.00
75815;BME280;70031;45.570;14.228;2023-07-24T06:07:26;96883.94;;;16.72;100.00
75815;BME280;70031;45.570;14.228;2023-07-24T06:09:26;96878.66;;;16.67;100.00
75815;BME280;70031;45.570;14.228;2023-07-24T06:11:26;96872.75;;;16.73;100.00
75815;BME280;70031;45.570;14.228;2023-07-24T06:13:27;96869.50;;;17.09;100.00
75815;BME280;70031;45.570;14.228;2023-07-24T06:15:28;96867.47;;;17.06;100.00
75815;BME280;70031;45.570;14.228;2023-07-24T06:17:28;96871.16;;;17.02;100.00
75815;BME280;70031;45.570;14.228;2023-07-24T06:19:28;96877.38;;;17.02;100.00
75815;BME280;70031;45.570;14.228;2023-07-24T06:21:29;96868.31;;;17.19;100.00
75815;BME280;70031;45.570;14.228;2023-07-24T06:23:29;96865.72;;;17.73;100.00
75815;BME280;70031;45.570;14.228;2023-07-24T06:25:30;96850.16;;;18.52;100.00
75815;BME280;70031;45.570;14.228;2023-07-24T06:27:31;96849.06;;;19.14;100.00
75815;BME280;70031;45.570;14.228;2023-07-24T06:29:32;96846.50;;;19.58;100.00
75815;BME280;70031;45.570;14.228;2023-07-24T06:31:32;96843.13;;;20.05;100.00
75815;BME280;70031;45.570;14.228;2023-07-24T06:33:33;96850.53;;;20.95;95.77
75815;BME280;70031;45.570;14.228;2023-07-24T06:35:33;96860.47;;;19.97;99.13
75815;BME280;70031;45.570;14.228;2023-07-24T06:37:34;96851.41;;;20.08;96.00
75815;BME280;70031;45.570;14.228;2023-07-24T06:39:34;96839.59;;;20.95;94.50
75815;BME280;70031;45.570;14.228;2023-07-24T06:41:34;96829.72;;;21.80;89.40
75815;BME280;70031;45.570;14.228;2023-07-24T06:43:35;96838.69;;;22.00;85.12
75815;BME280;70031;45.570;14.228;2023-07-24T06:45:35;96840.50;;;21.19;90.40
75815;BME280;70031;45.570;14.228;2023-07-24T06:47:36;96835.81;;;21.35;92.31
75815;BME280;70031;45.570;14.228;2023-07-24T06:49:36;96841.28;;;21.35;89.73
75815;BME280;70031;45.570;14.228;2023-07-24T06:51:36;96854.28;;;21.07;92.10
75815;BME280;70031;45.570;14.228;2023-07-24T06:53:38;96852.69;;;21.21;92.00
75815;BME280;70031;45.570;14.228;2023-07-24T06:55:38;96858.78;;;21.30;92.65
75815;BME280;70031;45.570;14.228;2023-07-24T06:57:39;96851.78;;;21.17;93.38
75815;BME280;70031;45.570;14.228;2023-07-24T06:59:39;96860.88;;;22.11;92.28
75815;BME280;70031;45.570;14.228;2023-07-24T07:01:39;96858.47;;;22.97;85.60
75815;BME280;70031;45.570;14.228;2023-07-24T07:03:40;96856.84;;;23.72;81.43
75815;BME280;70031;45.570;14.228;2023-07-24T07:05:40;96844.50;;;24.26;80.54
75815;BME280;70031;45.570;14.228;2023-07-24T07:07:41;96856.13;;;24.13;76.76
75815;BME280;70031;45.570;14.228;2023-07-24T07:09:41;96873.44;;;23.83;79.82
75815;BME280;70031;45.570;14.228;2023-07-24T07:12:19;96880.25;;;24.26;77.73
75815;BME280;70031;45.570;14.228;2023-07-24T07:14:43;96875.19;;;25.13;76.65
75815;BME280;70031;45.570;14.228;2023-07-24T07:16:43;96863.78;;;25.08;78.11
75815;BME280;70031;45.570;14.228;2023-07-24T07:18:44;96864.19;;;25.13;72.93
75815;BME280;70031;45.570;14.228;2023-07-24T07:20:46;96866.22;;;25.24;77.14
75815;BME280;70031;45.570;14.228;2023-07-24T07:22:55;96864.34;;;24.83;76.45
75815;BME280;70031;45.570;14.228;2023-07-24T07:24:56;96849.50;;;25.50;77.05
75815;BME280;70031;45.570;14.228;2023-07-24T07:26:56;96841.03;;;25.98;77.62
75815;BME280;70031;45.570;14.228;2023-07-24T07:28:56;96842.34;;;26.36;73.87
75815;BME280;70031;45.570;14.228;2023-07-24T07:30:57;96825.66;;;25.86;69.40
75815;BME280;70031;45.570;14.228;2023-07-24T07:32:57;96829.63;;;25.96;71.30
75815;BME280;70031;45.570;14.228;2023-07-24T07:34:57;96828.53;;;25.38;73.55
75815;BME280;70031;45.570;14.228;2023-07-24T07:36:58;96825.28;;;25.18;76.18
75815;BME280;70031;45.570;14.228;2023-07-24T07:38:58;96822.19;;;25.27;79.28
75815;BME280;70031;45.570;14.228;2023-07-24T07:41:04;96802.59;;;26.83;73.58
75815;BME280;70031;45.570;14.228;2023-07-24T07:43:04;96786.81;;;26.70;74.88
75815;BME280;70031;45.570;14.228;2023-07-24T07:45:05;96787.16;;;26.25;72.79
75815;BME280;70031;45.570;14.228;2023-07-24T07:47:05;96783.34;;;25.50;77.73
75815;BME280;70031;45.570;14.228;2023-07-24T07:49:06;96777.59;;;25.04;81.56
75815;BME280;70031;45.570;14.228;2023-07-24T07:51:06;96781.31;;;25.40;82.90
75815;BME280;70031;45.570;14.228;2023-07-24T07:53:07;96766.47;;;25.62;81.41
75815;BME280;70031;45.570;14.228;2023-07-24T07:55:07;96764.50;;;25.59;81.87
75815;BME280;70031;45.570;14.228;2023-07-24T07:57:08;96758.38;;;26.30;78.62
75815;BME280;70031;45.570;14.228;2023-07-24T07:59:08;96743.44;;;26.67;77.05
75815;BME280;70031;45.570;14.228;2023-07-24T08:01:09;96751.72;;;26.42;74.65
75815;BME280;70031;45.570;14.228;2023-07-24T08:03:09;96740.63;;;26.10;72.37
75815;BME280;70031;45.570;14.228;2023-07-24T08:05:10;96739.06;;;26.16;72.08
75815;BME280;70031;45.570;14.228;2023-07-24T08:07:11;96736.31;;;26.16;72.74
75815;BME280;70031;45.570;14.228;2023-07-24T08:09:11;96731.88;;;25.79;74.88
75815;BME280;70031;45.570;14.228;2023-07-24T08:11:12;96735.44;;;25.80;77.16
75815;BME280;70031;45.570;14.228;2023-07-24T08:13:12;96728.75;;;25.73;77.22
75815;BME280;70031;45.570;14.228;2023-07-24T08:15:13;96716.09;;;25.65;73.99
75815;BME280;70031;45.570;14.228;2023-07-24T08:17:13;96714.53;;;25.68;74.34
75815;BME280;70031;45.570;14.228;2023-07-24T08:19:13;96698.38;;;25.70;78.87
75815;BME280;70031;45.570;14.228;2023-07-24T08:21:14;96683.78;;;25.59;76.41
75815;BME280;70031;45.570;14.228;2023-07-24T08:23:15;96684.56;;;25.52;77.37
75815;BME280;70031;45.570;14.228;2023-07-24T08:25:15;96696.72;;;25.40;77.64
75815;BME280;70031;45.570;14.228;2023-07-24T08:27:16;96702.09;;;25.15;76.73
75815;BME280;70031;45.570;14.228;2023-07-24T08:29:16;96710.53;;;25.55;76.01
75815;BME280;70031;45.570;14.228;2023-07-24T08:31:17;96707.09;;;25.86;76.74
75815;BME280;70031;45.570;14.228;2023-07-24T08:33:17;96703.22;;;26.26;78.86
75815;BME280;70031;45.570;14.228;2023-07-24T08:35:17;96707.97;;;26.51;78.75
75815;BME280;70031;45.570;14.228;2023-07-24T08:37:18;96720.53;;;26.27;75.55
75815;BME280;70031;45.570;14.228;2023-07-24T08:39:18;96721.78;;;26.40;75.12
75815;BME280;70031;45.570;14.228;2023-07-24T08:41:19;96756.47;;;26.66;73.56
75815;BME280;70031;45.570;14.228;2023-07-24T08:43:19;96756.84;;;26.75;75.95
75815;BME280;70031;45.570;14.228;2023-07-24T08:45:21;96744.22;;;26.60;75.32
75815;BME280;70031;45.570;14.228;2023-07-24T08:47:23;96735.94;;;26.39;75.00
75815;BME280;70031;45.570;14.228;2023-07-24T08:49:24;96729.66;;;26.49;74.81
75815;BME280;70031;45.570;14.228;2023-07-24T08:51:25;96705.56;;;26.21;75.75
75815;BME280;70031;45.570;14.228;2023-07-24T08:53:26;96687.00;;;25.89;75.27
75815;BME280;70031;45.570;14.228;2023-07-24T08:55:28;96702.41;;;26.01;74.47
75815;BME280;70031;45.570;14.228;2023-07-24T08:57:29;96693.34;;;26.22;74.68
75815;BME280;70031;45.570;14.228;2023-07-24T08:59:29;96697.69;;;26.09;73.28
75815;BME280;70031;45.570;14.228;2023-07-24T09:01:30;96704.00;;;26.27;73.91
75815;BME280;70031;45.570;14.228;2023-07-24T09:03:31;96707.53;;;26.31;73.47
75815;BME280;70031;45.570;14.228;2023-07-24T09:05:32;96690.97;;;26.20;72.24
75815;BME280;70031;45.570;14.228;2023-07-24T09:07:32;96682.69;;;26.74;76.88
75815;BME280;70031;45.570;14.228;2023-07-24T09:09:32;96700.06;;;26.60;72.61
75815;BME280;70031;45.570;14.228;2023-07-24T09:11:45;96701.66;;;26.65;73.16
75815;BME280;70031;45.570;14.228;2023-07-24T09:13:46;96694.94;;;26.66;71.39
75815;BME280;70031;45.570;14.228;2023-07-24T09:15:46;96696.13;;;26.61;72.82
75815;BME280;70031;45.570;14.228;2023-07-24T09:17:51;96692.13;;;26.80;70.37
75815;BME280;70031;45.570;14.228;2023-07-24T09:19:56;96679.88;;;26.95;71.61
75815;BME280;70031;45.570;14.228;2023-07-24T09:22:07;96651.88;;;26.93;72.34
75815;BME280;70031;45.570;14.228;2023-07-24T09:24:12;96621.44;;;27.14;72.35
75815;BME280;70031;45.570;14.228;2023-07-24T09:26:13;96617.44;;;27.26;70.90
75815;BME280;70031;45.570;14.228;2023-07-24T09:28:14;96637.50;;;27.41;67.77
75815;BME280;70031;45.570;14.228;2023-07-24T09:30:15;96641.47;;;27.29;67.77
75815;BME280;70031;45.570;14.228;2023-07-24T09:32:25;96646.22;;;27.32;71.31
75815;BME280;70031;45.570;14.228;2023-07-24T09:34:26;96640.25;;;27.37;70.91
75815;BME280;70031;45.570;14.228;2023-07-24T09:36:36;96648.94;;;27.36;68.95
75815;BME280;70031;45.570;14.228;2023-07-24T09:38:41;96659.69;;;27.23;69.17
75815;BME280;70031;45.570;14.228;2023-07-24T09:40:43;96653.84;;;27.07;72.55
75815;BME280;70031;45.570;14.228;2023-07-24T09:42:44;96664.22;;;27.62;73.58
75815;BME280;70031;45.570;14.228;2023-07-24T09:44:44;96666.97;;;27.62;69.56
75815;BME280;70031;45.570;14.228;2023-07-24T09:46:45;96676.16;;;27.48;73.69
75815;BME280;70031;45.570;14.228;2023-07-24T09:48:45;96666.69;;;27.42;72.01
75815;BME280;70031;45.570;14.228;2023-07-24T09:50:48;96672.91;;;27.64;75.47
75815;BME280;70031;45.570;14.228;2023-07-24T09:52:49;96683.97;;;27.64;69.69
75815;BME280;70031;45.570;14.228;2023-07-24T09:55:05;96678.06;;;27.58;72.93
75815;BME280;70031;45.570;14.228;2023-07-24T09:57:08;96683.19;;;27.60;71.34
75815;BME280;70031;45.570;14.228;2023-07-24T09:59:12;96676.91;;;27.52;73.22
75815;BME280;70031;45.570;14.228;2023-07-24T10:01:12;96686.69;;;27.75;73.70
75815;BME280;70031;45.570;14.228;2023-07-24T10:03:14;96683.16;;;27.70;73.83
75815;BME280;70031;45.570;14.228;2023-07-24T10:05:15;96682.38;;;27.63;73.66
75815;BME280;70031;45.570;14.228;2023-07-24T10:07:17;96667.44;;;27.46;72.30
75815;BME280;70031;45.570;14.228;2023-07-24T10:09:21;96666.31;;;27.36;73.16
75815;BME280;70031;45.570;14.228;2023-07-24T10:11:24;96648.31;;;27.07;75.58
75815;BME280;70031;45.570;14.228;2023-07-24T10:13:26;96649.09;;;26.97;75.31
75815;BME280;70031;45.570;14.228;2023-07-24T10:15:27;96636.91;;;26.80;76.24
75815;BME280;70031;45.570;14.228;2023-07-24T10:17:38;96625.94;;;26.48;75.78
75815;BME280;70031;45.570;14.228;2023-07-24T10:19:42;96603.84;;;26.62;74.55
75815;BME280;70031;45.570;14.228;2023-07-24T10:21:47;96583.34;;;26.67;75.92
75815;BME280;70031;45.570;14.228;2023-07-24T10:23:50;96591.94;;;26.83;74.74
75815;BME280;70031;45.570;14.228;2023-07-24T10:25:51;96622.03;;;26.49;75.88
75815;BME280;70031;45.570;14.228;2023-07-24T10:27:52;96637.00;;;26.05;77.38
75815;BME280;70031;45.570;14.228;2023-07-24T10:30:03;96607.84;;;25.79;77.36
75815;BME280;70031;45.570;14.228;2023-07-24T10:32:16;96606.22;;;25.64;79.85
75815;BME280;70031;45.570;14.228;2023-07-24T10:34:18;96631.09;;;25.92;82.08
75815;BME280;70031;45.570;14.228;2023-07-24T10:36:21;96640.16;;;25.82;81.00
75815;BME280;70031;45.570;14.228;2023-07-24T10:38:34;96653.88;;;25.61;80.86